Time;durP1;ratioP1;P1;durP2;ratioP2;P2;SDS_P1;SDS_P2;PMS_P1;PMS_P2;Temp;Humidity;BMP_temperature;BMP_pressure;BME280_temperature;BME280_humidity;BME280_pressure;Samples;Min_cycle;Max_cycle;Signal;HPM_P1;HPM_P2
2021/06/02 00:00:41;;;;;;;3.10;2.83;;;18.10;23.30;;;;;;10425501;28;20240;-75
2021/06/02 00:05:46;;;;;;;2.90;2.70;;;18.00;23.40;;;;;;10425148;28;20295;-75
2021/06/02 00:10:50;;;;;;;2.77;2.57;;;17.90;23.90;;;;;;10422814;28;20224;-75
2021/06/02 00:15:53;;;;;;;3.03;2.30;;;17.80;23.60;;;;;;10418224;28;20299;-75
2021/06/02 00:20:58;;;;;;;3.20;2.90;;;17.80;23.80;;;;;;10419756;28;20325;-75
2021/06/02 00:26:02;;;;;;;2.73;2.53;;;17.70;23.80;;;;;;10421099;28;20328;-76
2021/06/02 00:31:06;;;;;;;2.90;2.40;;;17.60;23.70;;;;;;10422819;28;20232;-75
2021/06/02 00:36:13;;;;;;;3.00;2.70;;;17.50;23.60;;;;;;10422630;28;20312;-75
2021/06/02 00:41:16;;;;;;;2.67;2.47;;;17.40;24.00;;;;;;10420030;28;20252;-75
2021/06/02 00:46:22;;;;;;;4.83;2.33;;;17.30;23.50;;;;;;10419503;28;20232;-75
2021/06/02 00:51:27;;;;;;;2.70;2.50;;;17.30;24.20;;;;;;10421055;28;20237;-75
2021/06/02 00:56:31;;;;;;;2.93;2.73;;;17.20;24.10;;;;;;10422904;28;20307;-75
2021/06/02 01:01:35;;;;;;;3.97;2.53;;;17.20;24.10;;;;;;10418605;28;20238;-75
2021/06/02 01:06:43;;;;;;;2.40;2.20;;;17.10;23.90;;;;;;10423284;28;20271;-79
2021/06/02 01:11:48;;;;;;;3.70;2.67;;;17.00;24.60;;;;;;10430056;28;20705;-75
2021/06/02 01:16:51;;;;;;;2.57;2.37;;;16.90;24.40;;;;;;10421000;28;20291;-76
2021/06/02 01:21:56;;;;;;;2.27;2.10;;;16.80;24.10;;;;;;10427577;28;20751;-78
2021/06/02 01:27:03;;;;;;;2.60;2.40;;;16.70;24.50;;;;;;10425410;28;20597;-75
2021/06/02 01:32:45;;;;;;;3.03;2.50;;;16.60;24.70;;;;;;10421492;28;20231;-77
2021/06/02 01:38:25;;;;;;;2.57;2.37;;;16.50;25.10;;;;;;10425368;28;20248;-75
2021/06/02 01:43:47;;;;;;;2.97;2.40;;;16.30;25.10;;;;;;10419375;28;20227;-75
2021/06/02 01:48:57;;;;;;;2.50;2.30;;;16.20;25.50;;;;;;10417767;28;20601;-75
2021/06/02 01:54:52;;;;;;;2.90;2.60;;;16.00;25.20;;;;;;10416941;28;20328;-77
2021/06/02 02:00:36;;;;;;;2.63;2.43;;;15.90;25.60;;;;;;10415620;28;20229;-78
2021/06/02 02:06:27;;;;;;;3.70;2.40;;;15.90;25.50;;;;;;10420426;28;20224;-77
2021/06/02 02:11:34;;;;;;;2.73;2.50;;;15.80;25.90;;;;;;10421095;28;20312;-78
2021/06/02 02:16:58;;;;;;;2.67;2.40;;;15.60;25.60;;;;;;10416146;28;20649;-77
2021/06/02 02:22:12;;;;;;;2.90;2.70;;;15.50;26.00;;;;;;10430469;28;20258;-77
2021/06/02 02:27:25;;;;;;;2.87;2.47;;;15.40;26.20;;;;;;10425994;28;20230;-77
2021/06/02 02:32:56;;;;;;;2.87;2.63;;;15.30;26.30;;;;;;10432714;28;20233;-77
2021/06/02 02:38:10;;;;;;;2.60;2.40;;;15.20;26.30;;;;;;10427672;28;20328;-77
2021/06/02 02:43:24;;;;;;;2.90;2.40;;;15.20;26.30;;;;;;10425885;28;20233;-78
2021/06/02 02:48:37;;;;;;;3.00;2.80;;;15.10;26.30;;;;;;10436788;28;20232;-77
2021/06/02 02:53:45;;;;;;;3.63;2.40;;;15.10;26.70;;;;;;10426930;28;20248;-77
2021/06/02 02:59:03;;;;;;;2.43;2.20;;;15.10;26.10;;;;;;10422163;28;20229;-77
2021/06/02 03:04:14;;;;;;;3.67;2.50;;;15.00;26.70;;;;;;10425273;28;20230;-77
2021/06/02 03:09:32;;;;;;;2.40;2.20;;;15.00;26.40;;;;;;10428181;28;20220;-77
2021/06/02 03:14:48;;;;;;;2.70;2.50;;;15.00;26.90;;;;;;10426571;28;20307;-78
2021/06/02 03:20:00;;;;;;;3.37;2.87;;;14.90;26.80;;;;;;10424104;28;20717;-77
2021/06/02 03:25:13;;;;;;;3.00;2.70;;;14.90;26.90;;;;;;10423863;28;20228;-78
2021/06/02 03:30:30;;;;;;;2.93;2.73;;;14.90;26.80;;;;;;10431822;28;20230;-77
2021/06/02 03:35:45;;;;;;;2.73;2.53;;;14.80;26.90;;;;;;10425480;28;20320;-77
2021/06/02 03:40:58;;;;;;;2.50;2.30;;;14.80;26.90;;;;;;10420478;28;20225;-77
2021/06/02 03:46:22;;;;;;;2.30;2.17;;;14.80;26.80;;;;;;10420476;28;20221;-77
2021/06/02 03:51:36;;;;;;;2.53;2.33;;;14.70;27.10;;;;;;10403942;28;20621;-77
2021/06/02 03:57:02;;;;;;;3.20;2.90;;;14.70;27.10;;;;;;10420710;28;20244;-77
2021/06/02 04:02:28;;;;;;;3.90;3.00;;;14.60;27.30;;;;;;10427179;28;20715;-77
2021/06/02 04:07:43;;;;;;;5.20;3.30;;;14.60;27.20;;;;;;10419996;28;20225;-77
2021/06/02 04:12:53;;;;;;;5.60;3.17;;;14.50;27.80;;;;;;10422632;28;20233;-77
2021/06/02 04:17:59;;;;;;;3.43;3.00;;;14.40;27.30;;;;;;10426853;28;20759;-77
2021/06/02 04:23:04;;;;;;;3.50;3.20;;;14.40;27.20;;;;;;10418513;28;20229;-77
2021/06/02 04:28:08;;;;;;;4.90;3.40;;;14.40;27.50;;;;;;10426411;28;20992;-77
2021/06/02 04:33:16;;;;;;;5.93;3.53;;;14.40;27.30;;;;;;10421476;28;20234;-77
2021/06/02 04:38:20;;;;;;;3.63;3.33;;;14.40;27.80;;;;;;10426718;28;20231;-77
2021/06/02 04:43:25;;;;;;;4.17;3.57;;;14.40;27.80;;;;;;10420443;28;20279;-77
2021/06/02 04:48:29;;;;;;;3.50;3.20;;;14.40;27.80;;;;;;10422997;28;20225;-77
2021/06/02 04:54:01;;;;;;;3.63;3.33;;;14.40;28.20;;;;;;10418912;28;20226;-77
2021/06/02 04:59:37;;;;;;;4.20;3.80;;;14.40;29.20;;;;;;10421703;28;20220;-77
2021/06/02 05:05:13;;;;;;;6.87;3.70;;;14.50;28.90;;;;;;10392903;28;20303;-77
2021/06/02 05:11:10;;;;;;;3.70;3.40;;;14.50;29.10;;;;;;10408652;28;20221;-77
2021/06/02 05:16:46;;;;;;;3.80;3.50;;;14.70;29.30;;;;;;10415992;28;20584;-77
2021/06/02 05:22:31;;;;;;;4.30;4.00;;;14.80;29.70;;;;;;10431679;28;20236;-77
2021/06/02 05:28:16;;;;;;;3.80;3.40;;;15.00;29.90;;;;;;10415992;28;20217;-78
2021/06/02 05:33:58;;;;;;;4.13;3.53;;;15.20;29.70;;;;;;10421077;28;20841;-77
2021/06/02 05:39:35;;;;;;;4.07;3.77;;;15.40;30.00;;;;;;10420166;28;20761;-78
2021/06/02 05:45:12;;;;;;;3.57;3.27;;;15.50;30.20;;;;;;10421393;28;20691;-78
2021/06/02 05:50:37;;;;;;;3.73;3.43;;;15.70;30.20;;;;;;10401535;28;20308;-78
2021/06/02 05:56:03;;;;;;;3.60;3.30;;;15.90;30.00;;;;;;10419440;28;20240;-77
2021/06/02 06:01:47;;;;;;;3.27;3.07;;;16.10;30.30;;;;;;10403495;28;20309;-76
2021/06/02 06:07:02;;;;;;;4.23;3.20;;;16.40;29.70;;;;;;10436607;28;20228;-77
2021/06/02 06:12:27;;;;;;;3.63;3.33;;;16.50;30.30;;;;;;10433595;28;20228;-77
2021/06/02 06:18:00;;;;;;;3.93;2.90;;;16.80;30.00;;;;;;10430228;28;20722;-77
2021/06/02 06:23:16;;;;;;;3.77;2.97;;;17.00;29.70;;;;;;10426888;28;20231;-77
2021/06/02 06:28:29;;;;;;;4.10;2.80;;;17.20;29.60;;;;;;10429224;28;20418;-77
2021/06/02 06:33:33;;;;;;;3.50;2.90;;;17.50;29.20;;;;;;10428870;28;20243;-77
2021/06/02 06:39:02;;;;;;;2.70;2.50;;;17.70;29.10;;;;;;10430133;28;20804;-77
2021/06/02 06:44:07;;;;;;;2.93;2.17;;;17.90;28.00;;;;;;10425649;28;20221;-77
2021/06/02 06:49:12;;;;;;;3.30;2.20;;;18.10;28.50;;;;;;10428723;28;20227;-76
2021/06/02 06:54:17;;;;;;;3.13;2.20;;;18.40;27.90;;;;;;10424809;28;20234;-75
2021/06/02 06:59:20;;;;;;;2.43;2.20;;;18.60;27.90;;;;;;10428645;28;20229;-77
2021/06/02 07:04:24;;;;;;;3.27;2.13;;;18.80;27.90;;;;;;10430319;28;20684;-77
2021/06/02 07:09:28;;;;;;;2.20;2.00;;;19.00;27.60;;;;;;10428963;28;20233;-77
2021/06/02 07:14:32;;;;;;;3.20;2.40;;;19.20;27.40;;;;;;10423495;28;20233;-79
2021/06/02 07:19:40;;;;;;;2.30;2.20;;;19.40;27.40;;;;;;10430120;28;20232;-79
2021/06/02 07:24:45;;;;;;;3.23;2.40;;;19.70;27.20;;;;;;10426708;28;20251;-79
2021/06/02 07:29:47;;;;;;;2.50;2.30;;;19.90;27.20;;;;;;10428874;28;20689;-79
2021/06/02 07:34:51;;;;;;;3.47;2.00;;;20.10;27.10;;;;;;10429537;28;20317;-79
2021/06/02 07:39:55;;;;;;;2.53;2.33;;;20.40;27.00;;;;;;10427538;28;20229;-78
2021/06/02 07:44:58;;;;;;;3.30;2.00;;;20.60;26.80;;;;;;10430837;28;20316;-79
2021/06/02 07:50:01;;;;;;;2.90;2.00;;;20.80;26.80;;;;;;10429866;28;20390;-77
2021/06/02 07:55:06;;;;;;;2.20;2.00;;;21.10;26.80;;;;;;10433617;28;20225;-79
2021/06/02 08:00:10;;;;;;;2.50;2.10;;;21.30;26.20;;;;;;10429893;28;20221;-80
2021/06/02 08:05:15;;;;;;;2.43;1.80;;;21.50;26.30;;;;;;10420820;28;20233;-75
2021/06/02 08:10:19;;;;;;;2.43;2.20;;;21.70;26.50;;;;;;10421394;28;20221;-75
2021/06/02 08:15:22;;;;;;;2.40;2.20;;;21.90;26.40;;;;;;10418720;28;20231;-76
2021/06/02 08:20:25;;;;;;;2.37;2.10;;;22.10;26.40;;;;;;10423184;28;20229;-75
2021/06/02 08:25:29;;;;;;;4.40;2.30;;;22.20;26.20;;;;;;10419428;28;20231;-75
2021/06/02 08:30:32;;;;;;;2.57;2.33;;;22.40;25.90;;;;;;10421891;28;20227;-75
2021/06/02 08:35:35;;;;;;;3.63;2.17;;;22.70;26.00;;;;;;10422563;28;20308;-72
2021/06/02 08:40:39;;;;;;;3.10;2.13;;;22.90;25.80;;;;;;10423312;28;20278;-73
2021/06/02 08:45:42;;;;;;;2.80;2.10;;;23.00;25.70;;;;;;10416235;28;20248;-72
2021/06/02 08:50:44;;;;;;;3.57;2.50;;;23.20;25.50;;;;;;10417229;28;20225;-72
2021/06/02 08:55:49;;;;;;;2.50;2.17;;;23.50;25.60;;;;;;10420715;28;20308;-72
2021/06/02 09:00:52;;;;;;;2.50;2.27;;;23.70;25.40;;;;;;10419235;28;20229;-73
2021/06/02 09:05:56;;;;;;;2.37;2.20;;;23.90;25.30;;;;;;10417545;28;20217;-72
2021/06/02 09:11:10;;;;;;;2.30;2.10;;;24.00;24.70;;;;;;10422598;28;20229;-80
2021/06/02 09:16:20;;;;;;;2.50;2.30;;;24.20;24.30;;;;;;10430874;28;20225;-80
2021/06/02 09:21:23;;;;;;;2.43;2.23;;;24.30;24.20;;;;;;10435568;28;20849;-77
2021/06/02 09:26:28;;;;;;;3.60;2.37;;;24.50;24.30;;;;;;10425036;28;20320;-77
2021/06/02 09:31:33;;;;;;;2.07;1.83;;;24.70;23.80;;;;;;10431922;28;20232;-77
2021/06/02 09:36:38;;;;;;;2.60;2.07;;;24.70;23.80;;;;;;10431223;28;20229;-77
2021/06/02 09:41:47;;;;;;;3.33;2.10;;;24.90;23.90;;;;;;10414585;28;20888;-79
2021/06/02 09:47:05;;;;;;;2.50;2.30;;;25.00;23.60;;;;;;10429306;28;20224;-76
2021/06/02 09:52:08;;;;;;;3.03;2.20;;;25.20;23.50;;;;;;10413326;28;20222;-75
2021/06/02 09:57:14;;;;;;;2.50;2.30;;;25.30;23.70;;;;;;10425162;28;20230;-74
2021/06/02 10:02:16;;;;;;;2.83;2.10;;;25.40;23.30;;;;;;10416286;28;20599;-74
2021/06/02 10:07:21;;;;;;;3.90;2.17;;;25.60;23.60;;;;;;10418329;28;20234;-72
2021/06/02 10:12:25;;;;;;;8.33;2.37;;;25.80;23.20;;;;;;10420140;28;20604;-76
2021/06/02 10:17:29;;;;;;;2.37;2.17;;;26.10;22.80;;;;;;10424590;28;20229;-75
2021/06/02 10:22:32;;;;;;;2.57;2.37;;;26.20;22.60;;;;;;10412113;28;20259;-75
2021/06/02 10:27:37;;;;;;;8.57;2.70;;;26.30;22.60;;;;;;10417241;28;20752;-79
2021/06/02 10:32:41;;;;;;;4.13;1.90;;;26.40;22.10;;;;;;10422783;28;20225;-77
2021/06/02 10:37:44;;;;;;;2.23;2.10;;;26.50;22.60;;;;;;10424931;28;20229;-74
2021/06/02 10:43:06;;;;;;;2.00;1.90;;;26.50;22.20;;;;;;10416994;28;20230;-76
2021/06/02 10:48:10;;;;;;;2.53;2.33;;;26.60;21.60;;;;;;10421407;28;20317;-76
2021/06/02 10:53:25;;;;;;;2.23;2.03;;;26.60;21.80;;;;;;10428094;28;20645;-77
2021/06/02 10:58:31;;;;;;;2.47;2.20;;;26.70;21.50;;;;;;10438425;28;20257;-76
2021/06/02 11:03:35;;;;;;;2.53;2.30;;;26.70;21.10;;;;;;10426205;28;20237;-76
2021/06/02 11:09:16;;;;;;;2.63;2.40;;;26.80;21.90;;;;;;10425484;28;20229;-75
2021/06/02 11:14:26;;;;;;;2.40;2.20;;;26.80;21.60;;;;;;10424663;28;20368;-76
2021/06/02 11:19:35;;;;;;;2.20;2.10;;;26.90;20.30;;;;;;10415473;28;20247;-76
2021/06/02 11:24:50;;;;;;;2.10;2.00;;;26.90;20.60;;;;;;10426348;28;20225;-75
2021/06/02 11:30:27;;;;;;;1.90;1.80;;;27.10;20.10;;;;;;10424643;28;20227;-76
2021/06/02 11:36:09;;;;;;;2.53;2.10;;;27.20;20.30;;;;;;10421585;28;20733;-75
2021/06/02 11:41:13;;;;;;;2.23;2.00;;;27.30;19.70;;;;;;10421257;28;20230;-76
2021/06/02 11:46:47;;;;;;;2.23;2.03;;;27.30;19.70;;;;;;10422629;28;20775;-73
2021/06/02 11:51:50;;;;;;;2.00;1.90;;;27.40;19.80;;;;;;10430502;28;20653;-73
2021/06/02 11:56:53;;;;;;;3.27;2.13;;;27.50;19.80;;;;;;10426845;28;20559;-75
2021/06/02 12:02:13;;;;;;;3.40;1.83;;;27.60;19.50;;;;;;10428757;28;20229;-75
2021/06/02 12:07:20;;;;;;;2.20;2.10;;;27.70;18.60;;;;;;10386949;28;20226;-75
2021/06/02 12:12:25;;;;;;;2.53;2.33;;;27.70;18.20;;;;;;10379648;28;20260;-73
2021/06/02 12:17:30;;;;;;;2.30;2.10;;;27.80;19.00;;;;;;10385287;28;20312;-75
2021/06/02 12:22:33;;;;;;;2.20;2.10;;;27.70;18.20;;;;;;10383584;28;20234;-73
2021/06/02 12:27:38;;;;;;;2.20;1.97;;;27.70;18.50;;;;;;10386915;28;20229;-74
2021/06/02 12:32:51;;;;;;;3.47;2.00;;;27.80;18.40;;;;;;10380354;28;20228;-73
2021/06/02 12:38:08;;;;;;;2.23;2.10;;;27.90;18.10;;;;;;10386775;28;20252;-73
2021/06/02 12:43:12;;;;;;;2.40;2.20;;;28.00;18.30;;;;;;10416542;28;20221;-73
2021/06/02 12:48:31;;;;;;;2.53;2.33;;;28.10;18.60;;;;;;10419665;28;20777;-76
2021/06/02 12:53:35;;;;;;;4.07;2.13;;;28.20;17.80;;;;;;10420752;28;20287;-76
2021/06/02 12:58:39;;;;;;;1.90;1.80;;;28.30;18.10;;;;;;10423003;28;20603;-73
2021/06/02 13:03:45;;;;;;;2.00;1.90;;;28.30;17.90;;;;;;10420144;28;20469;-73
2021/06/02 13:08:49;;;;;;;4.70;2.10;;;28.30;17.60;;;;;;10418970;28;20659;-73
2021/06/02 13:13:53;;;;;;;2.00;1.90;;;28.30;17.80;;;;;;10418190;28;20233;-76
2021/06/02 13:19:03;;;;;;;2.30;2.10;;;28.40;17.80;;;;;;10418558;28;20228;-75
2021/06/02 13:24:10;;;;;;;2.47;2.37;;;28.50;16.50;;;;;;10416929;28;20227;-75
2021/06/02 13:29:13;;;;;;;3.00;2.70;;;28.50;17.00;;;;;;10417401;28;20244;-73
2021/06/02 13:34:34;;;;;;;4.13;3.20;;;28.50;17.50;;;;;;10421258;28;20237;-73
2021/06/02 13:39:37;;;;;;;14.73;8.30;;;28.50;17.50;;;;;;10415120;28;20316;-74
2021/06/02 13:44:39;;;;;;;5.03;2.93;;;28.50;17.60;;;;;;10421411;28;20958;-75
2021/06/02 13:49:44;;;;;;;2.20;2.10;;;28.50;17.60;;;;;;10419022;28;20593;-74
2021/06/02 13:54:55;;;;;;;3.37;3.07;;;28.50;16.80;;;;;;10421796;28;20233;-76
2021/06/02 13:59:58;;;;;;;2.40;2.20;;;28.50;16.90;;;;;;10418705;28;20229;-76
2021/06/02 14:05:04;;;;;;;2.60;2.10;;;28.60;17.40;;;;;;10420755;28;20226;-76
2021/06/02 14:10:08;;;;;;;2.20;2.10;;;28.60;16.20;;;;;;10419530;28;20761;-76
2021/06/02 14:15:12;;;;;;;2.10;2.00;;;28.60;16.60;;;;;;10413935;28;20322;-76
2021/06/02 14:20:17;;;;;;;3.50;1.90;;;28.60;16.70;;;;;;10415746;28;20708;-76
2021/06/02 14:25:21;;;;;;;2.30;2.10;;;28.60;16.40;;;;;;10424153;28;20240;-74
2021/06/02 14:30:24;;;;;;;2.30;2.10;;;28.60;16.20;;;;;;10427639;28;20729;-73
2021/06/02 14:35:28;;;;;;;2.20;2.00;;;28.60;16.20;;;;;;10424439;28;20689;-76
2021/06/02 14:40:30;;;;;;;1.97;1.87;;;28.70;16.20;;;;;;10427036;28;20225;-75
2021/06/02 14:45:34;;;;;;;2.10;1.97;;;28.70;16.00;;;;;;10424129;28;20240;-74
2021/06/02 14:50:39;;;;;;;2.43;2.07;;;28.80;16.30;;;;;;10417408;28;20317;-73
2021/06/02 14:55:42;;;;;;;2.10;1.90;;;28.90;15.90;;;;;;10422710;28;20248;-74
2021/06/02 15:00:45;;;;;;;2.00;1.90;;;28.90;15.60;;;;;;10424537;28;20328;-74
2021/06/02 15:05:51;;;;;;;2.20;2.07;;;28.90;15.50;;;;;;10424431;28;20279;-75
2021/06/02 15:10:54;;;;;;;1.97;1.87;;;28.80;15.30;;;;;;10423848;28;20612;-75
2021/06/02 15:15:59;;;;;;;2.03;1.93;;;28.80;15.40;;;;;;10425538;28;20239;-75
2021/06/02 15:21:04;;;;;;;2.63;2.10;;;28.90;15.40;;;;;;10427835;28;20252;-75
2021/06/02 15:26:08;;;;;;;2.30;2.10;;;29.00;14.70;;;;;;10427443;28;20225;-75
2021/06/02 15:31:13;;;;;;;2.87;2.03;;;29.00;14.80;;;;;;10426174;28;20236;-75
2021/06/02 15:36:18;;;;;;;1.90;1.80;;;28.80;14.80;;;;;;10423033;28;20827;-77
2021/06/02 15:41:20;;;;;;;3.63;2.20;;;28.80;14.90;;;;;;10422873;28;20716;-74
2021/06/02 15:46:23;;;;;;;2.43;1.90;;;28.90;15.20;;;;;;10425524;28;20235;-76
2021/06/02 15:51:27;;;;;;;2.00;1.90;;;28.90;15.00;;;;;;10423965;28;20713;-77
2021/06/02 15:56:35;;;;;;;1.80;1.70;;;29.00;14.40;;;;;;10426405;28;20232;-77
2021/06/02 16:01:38;;;;;;;1.97;1.77;;;29.00;14.40;;;;;;10425839;28;20225;-78
2021/06/02 16:06:42;;;;;;;2.20;1.80;;;29.10;14.60;;;;;;10426960;28;20282;-77
2021/06/02 16:11:45;;;;;;;1.87;1.77;;;29.10;14.00;;;;;;10426214;28;20308;-75
2021/06/02 16:16:48;;;;;;;1.93;1.80;;;29.20;14.50;;;;;;10423566;28;20709;-75
2021/06/02 16:21:52;;;;;;;3.13;2.93;;;29.20;14.40;;;;;;10423280;28;20264;-74
2021/06/02 16:26:55;;;;;;;2.10;2.00;;;29.30;14.30;;;;;;10415784;28;20260;-78
2021/06/02 16:31:58;;;;;;;2.50;2.30;;;29.40;14.10;;;;;;10421252;28;20244;-78
2021/06/02 16:37:02;;;;;;;2.30;2.10;;;29.40;15.10;;;;;;10429734;28;20225;-74
2021/06/02 16:42:06;;;;;;;2.33;2.23;;;29.50;15.50;;;;;;10422506;28;20320;-76
2021/06/02 16:47:09;;;;;;;2.30;2.10;;;29.60;15.60;;;;;;10422600;28;20652;-78
2021/06/02 16:52:14;;;;;;;2.50;2.30;;;29.70;15.40;;;;;;10418240;28;20235;-78
2021/06/02 16:57:17;;;;;;;2.73;2.30;;;29.80;15.40;;;;;;10419807;28;20225;-78
2021/06/02 17:02:22;;;;;;;2.90;2.10;;;29.80;15.30;;;;;;10423944;28;20237;-78
2021/06/02 17:07:27;;;;;;;2.20;2.10;;;29.90;15.30;;;;;;10425511;28;20271;-79
2021/06/02 17:12:30;;;;;;;3.07;2.50;;;29.80;15.10;;;;;;10423071;28;20768;-79
2021/06/02 17:17:38;;;;;;;2.60;2.40;;;29.80;15.20;;;;;;10427095;28;20308;-78
2021/06/02 17:22:43;;;;;;;4.33;2.63;;;29.80;14.70;;;;;;10418221;28;20231;-74
2021/06/02 17:27:47;;;;;;;3.50;3.07;;;29.70;14.70;;;;;;10420202;28;20760;-76
2021/06/02 17:32:52;;;;;;;3.00;2.70;;;29.60;15.10;;;;;;10421429;28;20233;-75
2021/06/02 17:37:57;;;;;;;3.60;2.63;;;29.40;15.50;;;;;;10416674;28;20240;-75
2021/06/02 17:43:01;;;;;;;3.90;2.53;;;29.40;15.30;;;;;;10425120;28;20256;-71
2021/06/02 17:48:07;;;;;;;2.33;2.13;;;29.30;15.30;;;;;;10428210;28;20739;-76
2021/06/02 17:53:16;;;;;;;2.17;2.00;;;29.30;15.50;;;;;;10422981;28;20225;-77
2021/06/02 17:58:19;;;;;;;2.57;2.37;;;29.20;15.80;;;;;;10428413;28;20247;-77
2021/06/02 18:03:22;;;;;;;2.50;2.30;;;29.30;15.90;;;;;;10428531;28;20235;-79
2021/06/02 18:08:27;;;;;;;3.87;2.40;;;29.30;16.00;;;;;;10428997;28;20655;-79
2021/06/02 18:13:31;;;;;;;2.67;2.27;;;29.30;16.50;;;;;;10419275;28;20239;-78
2021/06/02 18:18:42;;;;;;;3.20;2.53;;;29.30;16.30;;;;;;10420426;28;20221;-76
2021/06/02 18:23:47;;;;;;;4.03;3.20;;;29.10;16.20;;;;;;10422429;28;20259;-75
2021/06/02 18:28:54;;;;;;;2.57;2.37;;;29.00;16.60;;;;;;10419193;28;20226;-75
2021/06/02 18:33:57;;;;;;;4.30;2.37;;;28.80;16.80;;;;;;10420540;28;20243;-75
2021/06/02 18:39:01;;;;;;;2.60;2.40;;;28.60;17.00;;;;;;10421639;28;20221;-78
2021/06/02 18:44:05;;;;;;;3.77;2.30;;;28.40;17.40;;;;;;10417607;28;20239;-74
2021/06/02 18:49:12;;;;;;;2.77;2.33;;;28.30;17.60;;;;;;10423059;28;20225;-74
2021/06/02 18:54:16;;;;;;;2.80;2.50;;;28.00;17.70;;;;;;10417310;28;20315;-75
2021/06/02 18:59:21;;;;;;;3.07;2.27;;;27.90;18.30;;;;;;10420715;28;20709;-75
2021/06/02 19:04:24;;;;;;;2.50;2.30;;;27.70;18.10;;;;;;10415443;28;20241;-76
2021/06/02 19:09:28;;;;;;;2.30;2.10;;;27.50;18.10;;;;;;10424314;28;20221;-77
2021/06/02 19:14:31;;;;;;;2.50;2.30;;;27.30;18.30;;;;;;10422926;28;20229;-76
2021/06/02 19:19:33;;;;;;;2.60;2.40;;;27.10;18.40;;;;;;10422445;28;20244;-75
2021/06/02 19:24:39;;;;;;;2.87;2.67;;;27.00;18.80;;;;;;10423527;28;20244;-74
2021/06/02 19:29:42;;;;;;;2.40;2.27;;;26.80;19.50;;;;;;10422565;28;20237;-75
2021/06/02 19:34:45;;;;;;;3.17;2.80;;;26.60;19.40;;;;;;10426205;28;20315;-75
2021/06/02 19:39:49;;;;;;;2.40;2.30;;;26.40;19.20;;;;;;10422861;28;20235;-75
2021/06/02 19:44:52;;;;;;;3.37;2.57;;;26.30;19.20;;;;;;10421643;28;20221;-76
2021/06/02 19:49:54;;;;;;;3.00;2.70;;;26.10;19.10;;;;;;10424304;28;20232;-76
2021/06/02 19:54:59;;;;;;;4.47;3.70;;;25.90;19.00;;;;;;10420530;28;20240;-75
2021/06/02 20:00:02;;;;;;;3.97;3.67;;;25.70;19.70;;;;;;10422179;28;20221;-75
2021/06/02 20:05:06;;;;;;;5.17;4.53;;;25.50;19.50;;;;;;10421561;28;20225;-75
2021/06/02 20:10:11;;;;;;;5.80;4.03;;;25.20;19.80;;;;;;10427200;28;20379;-75
2021/06/02 20:15:14;;;;;;;8.23;5.80;;;25.00;20.50;;;;;;10422888;28;20241;-75
2021/06/02 20:20:17;;;;;;;3.77;3.47;;;24.80;20.20;;;;;;10419790;28;20257;-76
2021/06/02 20:25:21;;;;;;;4.77;4.00;;;24.70;20.40;;;;;;10423778;28;20237;-74
2021/06/02 20:35:44;;;;;;;5.57;3.90;;;24.10;20.70;;;;;;10405008;28;20225;-75
2021/06/02 20:40:48;;;;;;;3.80;3.50;;;23.70;21.00;;;;;;10421783;28;20229;-74
2021/06/02 20:45:51;;;;;;;4.23;3.93;;;23.50;21.70;;;;;;10415782;28;20229;-76
2021/06/02 20:50:54;;;;;;;4.47;4.17;;;23.30;21.70;;;;;;10420247;28;20767;-74
2021/06/02 20:55:58;;;;;;;5.73;5.23;;;23.20;21.80;;;;;;10433891;28;20232;-74
2021/06/02 21:01:01;;;;;;;5.97;5.53;;;23.20;22.20;;;;;;10426997;28;20728;-74
2021/06/02 21:06:04;;;;;;;4.80;4.40;;;23.10;22.20;;;;;;10418735;28;20237;-74
2021/06/02 21:11:08;;;;;;;4.90;4.40;;;23.00;22.30;;;;;;10428626;28;20312;-75
2021/06/02 21:16:11;;;;;;;4.20;3.90;;;22.90;22.80;;;;;;10431955;28;20224;-76
2021/06/02 21:21:14;;;;;;;7.60;6.20;;;22.90;22.60;;;;;;10430864;28;20778;-74
2021/06/02 21:26:18;;;;;;;6.93;6.27;;;22.80;22.50;;;;;;10426439;28;20226;-75
2021/06/02 21:31:21;;;;;;;14.77;12.77;;;22.80;22.80;;;;;;10429001;28;20253;-75
2021/06/02 21:36:24;;;;;;;11.83;10.67;;;22.70;22.80;;;;;;10432221;28;20626;-76
2021/06/02 21:41:31;;;;;;;10.00;9.10;;;22.50;22.60;;;;;;10420689;28;20232;-76
2021/06/02 21:46:34;;;;;;;13.77;12.37;;;22.40;23.10;;;;;;10417660;28;20851;-75
2021/06/02 21:51:36;;;;;;;12.07;9.40;;;22.30;22.70;;;;;;10416197;28;20648;-75
2021/06/02 21:56:40;;;;;;;10.40;9.30;;;22.10;22.80;;;;;;10418502;28;21130;-76
2021/06/02 22:01:43;;;;;;;8.27;7.37;;;21.80;23.20;;;;;;10418909;28;20229;-76
2021/06/02 22:06:46;;;;;;;5.90;5.30;;;21.60;23.20;;;;;;10423410;28;20310;-76
2021/06/02 22:11:51;;;;;;;5.20;4.70;;;21.40;23.50;;;;;;10422958;28;20229;-75
2021/06/02 22:16:54;;;;;;;5.57;5.17;;;21.20;24.10;;;;;;10418292;28;20301;-76
2021/06/02 22:21:57;;;;;;;5.10;4.70;;;21.10;24.10;;;;;;10421637;28;20271;-76
2021/06/02 22:27:01;;;;;;;5.80;5.30;;;21.00;24.20;;;;;;10425274;28;20229;-75
2021/06/02 22:32:04;;;;;;;4.63;4.23;;;20.90;25.20;;;;;;10413357;28;20703;-75
2021/06/02 22:37:07;;;;;;;5.67;5.17;;;20.90;24.40;;;;;;10416064;28;20915;-76
2021/06/02 22:42:12;;;;;;;8.17;5.00;;;20.90;24.50;;;;;;10414710;28;20235;-75
2021/06/02 22:47:14;;;;;;;5.70;4.97;;;20.80;24.90;;;;;;10429541;28;20613;-76
2021/06/02 22:52:17;;;;;;;5.63;5.10;;;20.80;24.50;;;;;;10429759;28;20254;-76
2021/06/02 22:57:21;;;;;;;5.87;5.10;;;20.70;24.60;;;;;;10429569;28;20304;-76
2021/06/02 23:02:24;;;;;;;8.73;6.93;;;20.60;25.00;;;;;;10424590;28;20225;-76
2021/06/02 23:07:27;;;;;;;6.57;5.90;;;20.60;25.00;;;;;;10430982;28;20594;-76
2021/06/02 23:12:31;;;;;;;7.33;5.53;;;20.60;24.80;;;;;;10430748;28;20224;-76
2021/06/02 23:17:42;;;;;;;6.30;5.27;;;20.50;25.60;;;;;;10417660;28;20221;-75
2021/06/02 23:22:45;;;;;;;5.70;5.20;;;20.40;25.60;;;;;;10421653;28;20340;-76
2021/06/02 23:27:49;;;;;;;8.23;7.50;;;20.30;25.30;;;;;;10430213;28;20230;-76
2021/06/02 23:32:54;;;;;;;6.80;6.20;;;20.20;25.50;;;;;;10423694;28;20241;-76
2021/06/02 23:37:57;;;;;;;6.87;6.17;;;20.10;25.40;;;;;;10433327;28;20299;-76
2021/06/02 23:43:03;;;;;;;6.33;5.63;;;20.00;25.30;;;;;;10425598;28;20256;-76
2021/06/02 23:48:06;;;;;;;11.27;10.13;;;20.00;25.60;;;;;;10426600;28;20221;-75
2021/06/02 23:53:09;;;;;;;10.40;9.40;;;19.90;25.80;;;;;;10423574;28;20234;-75
2021/06/02 23:58:14;;;;;;;10.10;7.97;;;19.80;25.90;;;;;;10427501;28;20233;-75
